createdAt,value
2022-08-05T00:01:20.176Z,22.84
2022-08-05T00:04:12.497Z,22.84
2022-08-05T00:06:58.339Z,22.87
2022-08-05T00:09:44.045Z,22.91
2022-08-05T00:12:29.025Z,22.86
2022-08-05T00:15:54.031Z,22.86
2022-08-05T00:18:21.570Z,22.92
2022-08-05T00:21:08.432Z,22.94
2022-08-05T00:24:05.063Z,22.86
2022-08-05T00:26:56.610Z,22.73
2022-08-05T00:29:43.288Z,22.68
2022-08-05T00:32:28.165Z,22.78
2022-08-05T00:35:13.051Z,22.76
2022-08-05T00:37:57.745Z,22.77
2022-08-05T00:40:52.007Z,22.75
2022-08-05T00:43:47.336Z,22.75
2022-08-05T00:46:42.581Z,22.69
2022-08-05T00:49:32.386Z,22.62
2022-08-05T00:52:17.667Z,22.55
2022-08-05T00:55:02.391Z,22.54
2022-08-05T00:57:58.621Z,22.55
2022-08-05T01:00:44.161Z,22.49
2022-08-05T01:03:30.833Z,22.55
2022-08-05T01:06:18.609Z,22.56
2022-08-05T01:09:04.081Z,22.53
2022-08-05T01:11:51.764Z,22.52
2022-08-05T01:14:36.942Z,22.49
2022-08-05T01:17:22.264Z,22.47
2022-08-05T01:20:07.610Z,22.44
2022-08-05T01:22:52.776Z,22.51
2022-08-05T01:25:42.147Z,22.57
2022-08-05T01:28:39.408Z,22.57
2022-08-05T01:31:24.329Z,22.54
2022-08-05T01:34:09.975Z,22.49
2022-08-05T01:36:55.752Z,22.27
2022-08-05T01:39:47.169Z,22.04
2022-08-05T01:42:32.661Z,21.82
2022-08-05T01:45:18.534Z,21.67
2022-08-05T01:48:05.275Z,21.63
2022-08-05T01:50:55.397Z,21.58
2022-08-05T01:53:57.251Z,21.63
2022-08-05T01:58:10.981Z,21.72
2022-08-05T01:59:48.545Z,21.83
2022-08-05T02:02:33.240Z,21.88
2022-08-05T02:05:20.106Z,21.87
2022-08-05T02:08:08.353Z,21.92
2022-08-05T02:10:53.069Z,21.93
2022-08-05T02:13:53.100Z,21.92
2022-08-05T02:16:38.182Z,21.91
2022-08-05T02:19:24.606Z,21.92
2022-08-05T02:22:17.446Z,21.92
2022-08-05T02:25:12.494Z,21.91
2022-08-05T02:28:00.328Z,21.85
2022-08-05T02:30:51.812Z,21.81
2022-08-05T02:33:39.778Z,21.84
2022-08-05T02:36:24.676Z,21.83
2022-08-05T02:39:12.648Z,21.80
2022-08-05T02:42:01.089Z,21.76
2022-08-05T02:44:46.522Z,21.71
2022-08-05T02:47:58.644Z,21.64
2022-08-05T02:50:36.315Z,21.66
2022-08-05T02:53:21.466Z,21.61
2022-08-05T02:56:06.325Z,21.56
2022-08-05T02:58:52.742Z,21.53
2022-08-05T03:01:37.458Z,21.53
2022-08-05T03:04:24.298Z,21.55
2022-08-05T03:07:09.561Z,21.55
2022-08-05T03:10:14.542Z,21.50
2022-08-05T03:15:43.277Z,21.52
2022-08-05T03:18:29.946Z,21.54
2022-08-05T03:21:15.555Z,21.57
2022-08-05T03:24:02.451Z,21.59
2022-08-05T03:26:49.376Z,21.58
2022-08-05T03:29:45.407Z,21.57
2022-08-05T03:32:39.384Z,21.67
2022-08-05T03:35:24.732Z,21.70
2022-08-05T03:38:09.524Z,21.73
2022-08-05T03:40:54.285Z,21.71
2022-08-05T03:44:09.365Z,21.72
2022-08-05T03:46:47.307Z,21.72
2022-08-05T03:49:51.342Z,21.72
2022-08-05T03:54:59.302Z,21.73
2022-08-05T03:56:05.518Z,21.73
2022-08-05T03:58:46.597Z,21.66
2022-08-05T04:01:32.320Z,21.67
2022-08-05T04:04:21.126Z,21.70
2022-08-05T04:07:06.413Z,21.70
2022-08-05T04:09:53.526Z,21.66
2022-08-05T04:15:24.518Z,21.55
2022-08-05T04:18:11.248Z,21.54
2022-08-05T04:21:00.858Z,21.50
2022-08-05T04:23:57.362Z,21.44
2022-08-05T04:26:50.863Z,21.33
2022-08-05T04:29:36.260Z,21.29
2022-08-05T04:32:30.854Z,21.28
2022-08-05T04:35:17.590Z,21.30
2022-08-05T04:38:06.826Z,21.35
2022-08-05T04:40:51.669Z,21.43
2022-08-05T04:43:36.553Z,21.50
2022-08-05T04:46:27.833Z,21.54
2022-08-05T04:49:14.785Z,21.55
2022-08-05T04:52:00.481Z,21.58
2022-08-05T04:54:45.703Z,21.58
2022-08-05T04:57:37.178Z,21.60
2022-08-05T05:00:23.255Z,21.54
2022-08-05T05:03:09.010Z,21.54
2022-08-05T05:06:39.382Z,21.50
2022-08-05T05:08:58.938Z,21.52
2022-08-05T05:11:55.597Z,21.56
2022-08-05T05:14:49.130Z,21.54
2022-08-05T05:17:56.193Z,21.62
2022-08-05T05:20:39.511Z,21.71
2022-08-05T05:23:24.698Z,21.77
2022-08-05T05:26:09.523Z,21.81
2022-08-05T05:28:54.666Z,21.88
2022-08-05T05:31:41.784Z,22.06
2022-08-05T05:34:31.646Z,22.21
2022-08-05T05:37:16.649Z,22.37
2022-08-05T05:40:01.848Z,23.03
2022-08-05T05:42:47.076Z,23.43
2022-08-05T05:45:32.289Z,23.51
2022-08-05T05:48:17.117Z,23.74
2022-08-05T05:51:14.760Z,24.49
2022-08-05T05:54:00.658Z,24.67
2022-08-05T05:56:45.321Z,24.76
2022-08-05T05:59:32.182Z,25.04
2022-08-05T06:02:37.666Z,27.03
2022-08-05T06:05:22.879Z,30.23
2022-08-05T06:08:07.727Z,31.93
2022-08-05T06:10:54.439Z,32.99
2022-08-05T06:13:40.691Z,31.50
2022-08-05T06:16:37.265Z,29.68
2022-08-05T06:19:26.206Z,28.70
2022-08-05T06:22:19.184Z,28.21
2022-08-05T06:25:24.418Z,27.80
2022-08-05T06:28:20.989Z,27.80
2022-08-05T06:31:10.883Z,27.98
2022-08-05T06:34:06.398Z,28.58
2022-08-05T06:36:57.602Z,29.54
2022-08-05T08:24:01.239Z,28.85
2022-08-05T08:26:46.662Z,28.99
2022-08-05T08:30:05.546Z,29.16
2022-08-05T08:32:41.677Z,29.34
2022-08-05T08:35:26.833Z,29.24
2022-08-05T08:38:35.858Z,29.06
2022-08-05T08:41:26.361Z,28.63
2022-08-05T08:45:23.346Z,28.46
2022-08-05T08:48:07.112Z,28.54
2022-08-05T08:51:07.588Z,28.68
2022-08-05T08:53:45.168Z,28.99
2022-08-05T08:56:30.362Z,29.02
2022-08-05T08:59:19.714Z,29.11
2022-08-05T09:02:06.029Z,29.11
2022-08-05T09:05:16.270Z,29.38
2022-08-05T09:07:58.794Z,29.76
2022-08-05T09:10:43.893Z,29.79
2022-08-05T09:18:22.124Z,29.85
2022-08-05T09:21:11.797Z,30.00
2022-08-05T09:24:06.763Z,30.05
2022-08-05T09:26:52.079Z,30.17
2022-08-05T09:29:37.257Z,30.49
2022-08-05T09:32:45.996Z,30.80
2022-08-05T09:35:31.600Z,30.57
2022-08-05T09:38:27.618Z,30.76
2022-08-05T09:41:16.239Z,31.04
2022-08-05T09:44:01.412Z,31.10
2022-08-05T09:46:51.945Z,31.10
2022-08-05T09:50:01.297Z,31.12
2022-08-05T09:52:47.603Z,31.20
2022-08-05T09:55:56.795Z,31.39
2022-08-05T09:58:42.797Z,31.18
2022-08-05T10:01:32.390Z,31.32
2022-08-05T10:04:18.449Z,31.20
2022-08-05T10:07:19.570Z,31.12
2022-08-05T10:10:15.144Z,30.89
2022-08-05T10:13:00.995Z,30.71
2022-08-05T10:15:45.762Z,30.32
2022-08-05T10:18:32.054Z,30.26
2022-08-05T10:21:17.416Z,30.05
2022-08-05T10:24:10.590Z,30.11
2022-08-05T10:26:56.122Z,30.02
2022-08-05T10:30:06.804Z,29.86
2022-08-05T10:32:59.730Z,29.91
2022-08-05T10:35:59.009Z,29.83
2022-08-05T10:38:45.116Z,29.79
2022-08-05T10:41:46.874Z,29.65
2022-08-05T10:44:32.399Z,29.70
2022-08-05T10:47:25.936Z,29.97
2022-08-05T10:50:32.863Z,30.24
2022-08-05T10:53:17.590Z,30.74
2022-08-05T10:56:05.421Z,31.22
2022-08-05T10:59:12.623Z,31.37
2022-08-05T11:02:34.402Z,31.03
2022-08-05T11:05:18.200Z,31.08
2022-08-05T11:08:12.698Z,30.84
2022-08-05T11:11:16.543Z,30.72
2022-08-05T11:14:02.023Z,30.63
2022-08-05T11:16:57.955Z,30.59
2022-08-05T11:20:17.546Z,30.53
2022-08-05T11:22:49.798Z,30.56
2022-08-05T11:26:05.099Z,30.56
2022-08-05T11:28:40.299Z,30.55
2022-08-05T11:31:54.541Z,30.51
2022-08-05T11:34:29.786Z,30.61
2022-08-05T11:38:30.623Z,30.64
2022-08-05T11:40:23.682Z,30.69
2022-08-05T11:43:10.869Z,30.78
2022-08-05T11:46:27.521Z,30.81
2022-08-05T11:49:00.368Z,30.85
2022-08-05T11:51:49.722Z,30.92
2022-08-05T11:54:35.085Z,30.82
2022-08-05T11:57:25.169Z,30.69
2022-08-05T12:00:11.182Z,30.39
2022-08-05T12:02:57.468Z,29.93
2022-08-05T12:05:43.642Z,29.54
2022-08-05T12:08:28.540Z,29.17
2022-08-05T12:11:20.321Z,28.93
2022-08-05T12:14:05.686Z,28.83
2022-08-05T12:16:51.933Z,28.75
2022-08-05T12:20:16.694Z,28.60
2022-08-05T12:22:41.940Z,28.60
2022-08-05T12:25:31.108Z,28.34
2022-08-05T12:28:15.847Z,28.37
2022-08-05T12:31:02.384Z,28.44
2022-08-05T12:33:47.354Z,28.40
2022-08-05T12:36:33.185Z,28.20
2022-08-05T12:39:18.348Z,27.93
2022-08-05T12:42:03.125Z,27.73
2022-08-05T12:44:48.000Z,27.77
2022-08-05T12:47:33.185Z,27.93
2022-08-05T12:50:19.804Z,28.16
2022-08-05T12:53:04.827Z,28.21
2022-08-05T12:55:49.643Z,28.46
2022-08-05T12:58:50.692Z,28.64
2022-08-05T13:02:01.009Z,28.72
2022-08-05T13:04:54.471Z,28.69
2022-08-05T13:10:50.751Z,28.78
2022-08-05T13:14:04.875Z,28.81
2022-08-05T13:16:41.127Z,28.94
2022-08-05T13:19:26.237Z,29.07
2022-08-05T13:22:12.180Z,29.12
2022-08-05T13:25:00.369Z,29.05
2022-08-05T13:27:46.034Z,28.99
2022-08-05T13:30:36.966Z,28.90
2022-08-05T13:34:23.085Z,28.70
2022-08-05T13:36:29.215Z,28.69
2022-08-05T13:39:24.451Z,28.62
2022-08-05T13:42:18.769Z,28.37
2022-08-05T13:45:06.335Z,28.28
2022-08-05T13:48:09.162Z,28.02
2022-08-05T13:50:55.814Z,27.93
2022-08-05T13:53:47.756Z,27.33
2022-08-05T13:56:33.563Z,27.28
2022-08-05T13:59:19.452Z,26.94
2022-08-05T14:02:06.882Z,26.73
2022-08-05T14:04:52.173Z,26.95
2022-08-05T14:08:00.228Z,27.20
2022-08-05T14:10:41.841Z,27.31
2022-08-05T14:13:26.721Z,27.42
2022-08-05T14:16:19.142Z,27.52
2022-08-05T14:19:04.408Z,27.49
2022-08-05T14:22:09.439Z,27.75
2022-08-05T14:24:54.709Z,27.85
2022-08-05T14:27:47.265Z,27.85
2022-08-05T14:30:32.317Z,27.71
2022-08-05T14:33:22.772Z,27.69
2022-08-05T14:36:08.603Z,27.65
2022-08-05T14:38:53.347Z,27.19
2022-08-05T14:41:39.164Z,27.31
2022-08-05T14:44:33.482Z,27.43
2022-08-05T14:48:03.961Z,27.04
2022-08-05T14:50:23.304Z,27.02
2022-08-05T14:53:10.508Z,27.13
2022-08-05T14:55:55.855Z,27.12
2022-08-05T14:58:47.560Z,27.04
2022-08-05T15:01:47.947Z,27.08
2022-08-05T15:04:34.678Z,27.19
2022-08-05T15:08:12.422Z,27.14
2022-08-05T15:10:28.623Z,27.25
2022-08-05T15:13:13.901Z,27.14
2022-08-05T15:15:58.758Z,26.73
2022-08-05T15:18:43.514Z,26.58
2022-08-05T15:21:32.375Z,26.75
2022-08-05T15:24:20.289Z,27.07
2022-08-05T15:27:09.062Z,27.28
2022-08-05T15:29:56.735Z,27.38
2022-08-05T15:32:41.693Z,27.48
2022-08-05T15:35:26.499Z,27.60
2022-08-05T15:38:33.918Z,27.53
2022-08-05T15:41:23.919Z,27.60
2022-08-05T15:44:09.562Z,27.57
2022-08-05T15:46:55.827Z,27.41
2022-08-05T15:49:56.828Z,27.30
2022-08-05T15:52:52.919Z,27.21
2022-08-05T15:56:02.960Z,27.08
2022-08-05T15:58:44.149Z,26.96
2022-08-05T16:01:29.965Z,26.95
2022-08-05T16:04:25.455Z,26.86
2022-08-05T16:07:10.955Z,26.76
2022-08-05T16:09:55.999Z,26.76
2022-08-05T16:12:40.711Z,26.68
2022-08-05T16:15:32.517Z,26.55
2022-08-05T16:18:18.758Z,26.38
2022-08-05T16:21:05.073Z,26.32
2022-08-05T16:23:53.789Z,26.34
2022-08-05T16:26:40.462Z,26.44
2022-08-05T16:29:28.802Z,26.47
2022-08-05T16:32:16.105Z,26.49
2022-08-05T16:35:00.709Z,26.42
2022-08-05T16:38:13.696Z,26.38
2022-08-05T16:40:55.730Z,26.26
2022-08-05T16:43:45.426Z,26.05
2022-08-05T16:46:30.101Z,25.90
2022-08-05T16:49:16.847Z,25.83
2022-08-05T16:52:01.685Z,25.76
2022-08-05T16:54:47.925Z,25.61
2022-08-05T16:57:53.060Z,25.32
2022-08-05T17:00:38.014Z,25.15
2022-08-05T17:03:24.922Z,25.03
2022-08-05T17:06:12.931Z,24.85
2022-08-05T17:09:01.243Z,24.64
2022-08-05T17:11:49.031Z,24.35
2022-08-05T17:14:38.127Z,24.27
2022-08-05T17:17:23.407Z,24.16
2022-08-05T17:20:27.501Z,24.24
2022-08-05T17:24:03.683Z,24.24
2022-08-05T17:26:18.432Z,24.36
2022-08-05T17:29:07.308Z,24.25
2022-08-05T17:31:57.321Z,23.91
2022-08-05T17:34:44.113Z,23.66
2022-08-05T17:37:41.807Z,23.45
2022-08-05T17:40:30.145Z,23.33
2022-08-05T17:43:16.306Z,23.20
2022-08-05T17:46:02.818Z,23.12
2022-08-05T17:48:49.563Z,23.18
2022-08-05T17:51:40.068Z,23.35
2022-08-05T17:54:25.392Z,23.48
2022-08-05T17:57:12.120Z,23.56
2022-08-05T18:00:03.292Z,23.54
2022-08-05T18:02:50.327Z,23.66
2022-08-05T18:05:36.353Z,23.68
2022-08-05T18:08:21.335Z,23.63
2022-08-05T18:11:06.114Z,23.61
2022-08-05T18:13:51.416Z,23.32
2022-08-05T18:16:51.306Z,23.20
2022-08-05T18:19:37.488Z,22.86
2022-08-05T18:22:46.158Z,22.82
2022-08-05T18:25:34.430Z,22.71
2022-08-05T18:28:21.804Z,22.66
2022-08-05T18:31:06.937Z,22.53
2022-08-05T18:33:53.837Z,22.57
2022-08-05T18:36:43.636Z,22.52
2022-08-05T18:40:31.032Z,22.32
2022-08-05T18:42:33.562Z,22.22
2022-08-05T18:45:18.695Z,22.14
2022-08-05T18:48:04.537Z,22.14
2022-08-05T18:50:49.376Z,22.10
2022-08-05T18:53:34.640Z,21.83
2022-08-05T18:56:27.776Z,21.79
2022-08-05T18:59:42.148Z,21.68
2022-08-05T19:02:26.884Z,21.61
2022-08-05T19:06:11.727Z,21.55
2022-08-05T19:08:18.819Z,21.47
2022-08-05T19:11:05.087Z,21.45
2022-08-05T19:14:00.621Z,21.45
2022-08-05T19:16:47.435Z,21.38
2022-08-05T19:19:32.447Z,21.35
2022-08-05T19:22:27.590Z,21.30
2022-08-05T19:25:29.669Z,21.22
2022-08-05T19:28:15.662Z,21.20
2022-08-05T19:31:01.147Z,21.03
2022-08-05T19:33:48.358Z,21.05
2022-08-05T19:36:42.547Z,21.06
2022-08-05T19:39:28.311Z,21.11
2022-08-05T19:42:13.599Z,20.98
2022-08-05T19:45:01.435Z,20.81
2022-08-05T19:47:46.637Z,20.35
2022-08-05T19:50:31.382Z,20.13
2022-08-05T19:53:17.159Z,19.98
2022-08-05T19:56:32.368Z,19.89
2022-08-05T19:59:51.257Z,19.90
2022-08-05T20:02:24.969Z,19.94
2022-08-05T20:05:16.411Z,19.98
2022-08-05T20:08:09.472Z,20.00
2022-08-05T20:10:55.098Z,20.07
2022-08-05T20:13:54.759Z,20.10
2022-08-05T20:16:44.207Z,20.09
2022-08-05T20:19:36.337Z,20.02
2022-08-05T20:22:27.264Z,20.08
2022-08-05T20:25:12.561Z,20.05
2022-08-05T20:27:57.593Z,19.94
2022-08-05T20:30:42.627Z,19.90
2022-08-05T20:33:27.450Z,19.91
2022-08-05T20:36:17.871Z,19.90
2022-08-05T20:39:02.965Z,19.89
2022-08-05T20:41:48.324Z,19.69
2022-08-05T20:44:37.732Z,19.49
2022-08-05T20:47:31.960Z,19.40
2022-08-05T20:50:17.012Z,19.28
2022-08-05T20:53:03.247Z,19.23
2022-08-05T20:56:07.983Z,19.15
2022-08-05T20:58:52.866Z,19.17
2022-08-05T21:01:38.744Z,19.17
2022-08-05T21:04:23.954Z,19.13
2022-08-05T21:07:12.200Z,19.22
2022-08-05T21:09:57.629Z,19.25
2022-08-05T21:13:09.116Z,19.21
2022-08-05T21:15:51.055Z,19.20
2022-08-05T21:18:36.514Z,19.22
2022-08-05T21:21:24.367Z,19.20
2022-08-05T21:24:09.730Z,19.22
2022-08-05T21:26:58.859Z,19.37
2022-08-05T21:29:48.534Z,19.45
2022-08-05T21:32:35.749Z,19.49
2022-08-05T21:35:30.297Z,19.56
2022-08-05T21:38:25.313Z,19.61
2022-08-05T21:41:12.019Z,19.59
2022-08-05T21:44:03.428Z,19.63
2022-08-05T21:46:48.758Z,19.60
2022-08-05T21:49:56.841Z,19.53
2022-08-05T21:52:38.338Z,19.53
2022-08-05T21:55:43.028Z,19.52
2022-08-05T21:58:42.161Z,19.50
2022-08-05T22:01:27.441Z,19.42
2022-08-05T22:04:13.340Z,19.43
2022-08-05T22:06:58.470Z,19.38
2022-08-05T22:09:45.971Z,19.28
2022-08-05T22:12:31.374Z,19.28
2022-08-05T22:15:16.395Z,19.20
2022-08-05T22:18:01.731Z,19.17
2022-08-05T22:20:46.868Z,19.05
2022-08-05T22:24:03.359Z,19.04
2022-08-05T22:26:41.791Z,18.96
2022-08-05T22:29:35.337Z,18.86
2022-08-05T22:32:20.850Z,18.83
2022-08-05T22:35:08.000Z,18.73
2022-08-05T22:37:58.940Z,18.68
2022-08-05T22:40:49.309Z,18.64
2022-08-05T22:43:36.604Z,18.51
2022-08-05T22:46:23.516Z,18.38
2022-08-05T22:49:12.529Z,18.40
2022-08-05T22:52:23.040Z,18.26
2022-08-05T22:55:18.206Z,18.04
2022-08-05T22:58:05.035Z,17.97
2022-08-05T23:00:50.485Z,17.85
2022-08-05T23:03:58.730Z,17.69
2022-08-05T23:06:40.766Z,17.65
2022-08-05T23:09:53.491Z,17.82
2022-08-05T23:12:33.295Z,17.98
2022-08-05T23:15:18.574Z,18.08
2022-08-05T23:18:11.489Z,18.14
2022-08-05T23:21:01.105Z,18.22
2022-08-05T23:23:45.958Z,18.26
2022-08-05T23:26:31.333Z,18.33
2022-08-05T23:32:22.948Z,18.38
2022-08-05T23:35:08.097Z,18.45
2022-08-05T23:37:52.859Z,18.42
2022-08-05T23:40:39.815Z,18.49
2022-08-05T23:44:03.565Z,18.51
2022-08-05T23:46:32.185Z,18.42
2022-08-05T23:49:23.814Z,18.48
2022-08-05T23:52:18.766Z,18.48
2022-08-05T23:55:05.415Z,18.45
2022-08-05T23:57:52.857Z,18.38
